createdAt,value
2023-01-21T00:01:26.074Z,62.88
2023-01-21T00:04:27.789Z,62.78
2023-01-21T00:07:29.329Z,62.73
2023-01-21T00:10:30.835Z,62.66
2023-01-21T00:13:35.589Z,62.73
2023-01-21T00:16:37.284Z,62.62
2023-01-21T00:19:38.784Z,62.78
2023-01-21T00:22:40.277Z,62.80
2023-01-21T00:25:41.793Z,62.96
2023-01-21T00:28:44.125Z,62.48
2023-01-21T00:31:45.816Z,62.54
2023-01-21T00:34:47.575Z,63.00
2023-01-21T00:37:51.625Z,63.00
2023-01-21T00:40:53.108Z,62.93
2023-01-21T00:43:54.592Z,62.90
2023-01-21T00:46:56.089Z,62.85
2023-01-21T00:49:57.574Z,62.87
2023-01-21T00:52:59.030Z,62.90
2023-01-21T00:56:01.949Z,62.84
2023-01-21T00:59:03.598Z,62.78
2023-01-21T01:02:05.236Z,62.74
2023-01-21T01:05:08.274Z,62.74
2023-01-21T01:08:09.754Z,62.71
2023-01-21T01:11:12.723Z,62.79
2023-01-21T01:14:14.181Z,62.75
2023-01-21T01:17:15.764Z,62.66
2023-01-21T01:20:17.644Z,62.74
2023-01-21T01:23:19.306Z,62.71
2023-01-21T01:26:22.195Z,62.78
2023-01-21T01:29:23.697Z,62.83
2023-01-21T01:32:25.161Z,62.72
2023-01-21T01:35:26.740Z,62.72
2023-01-21T01:38:28.297Z,62.68
2023-01-21T01:41:32.612Z,62.64
2023-01-21T01:44:56.136Z,62.51
2023-01-21T01:48:02.694Z,62.61
2023-01-21T01:51:07.328Z,62.54
2023-01-21T01:54:11.149Z,62.57
2023-01-21T01:57:14.739Z,62.68
2023-01-21T02:00:16.948Z,62.63
2023-01-21T02:03:36.992Z,62.75
2023-01-21T02:06:39.630Z,62.77
2023-01-21T02:09:41.222Z,62.66
2023-01-21T02:12:43.743Z,62.70
2023-01-21T02:16:02.500Z,62.63
2023-01-21T02:19:25.602Z,62.60
2023-01-21T02:23:06.015Z,62.60
2023-01-21T02:26:36.695Z,62.52
2023-01-21T02:29:56.474Z,62.47
2023-01-21T02:33:28.873Z,62.41
2023-01-21T02:37:00.029Z,62.52
2023-01-21T02:40:17.027Z,62.65
2023-01-21T02:43:34.322Z,62.67
2023-01-21T02:46:46.970Z,62.65
2023-01-21T02:50:00.830Z,62.71
2023-01-21T02:53:04.728Z,62.84
2023-01-21T02:56:11.131Z,62.72
2023-01-21T02:59:12.977Z,62.58
2023-01-21T03:02:17.516Z,62.63
2023-01-21T03:05:23.370Z,62.56
2023-01-21T03:08:37.153Z,62.56
2023-01-21T03:11:44.019Z,62.49
2023-01-21T03:15:09.984Z,62.58
2023-01-21T03:18:11.392Z,62.58
2023-01-21T03:21:20.659Z,62.53
2023-01-21T03:24:22.984Z,62.62
2023-01-21T03:27:27.116Z,62.73
2023-01-21T03:30:29.892Z,62.69
2023-01-21T03:33:34.613Z,62.67
2023-01-21T03:36:43.118Z,62.55
2023-01-21T03:39:50.107Z,62.69
2023-01-21T03:42:53.529Z,62.63
2023-01-21T03:46:09.329Z,62.73
2023-01-21T03:49:52.310Z,62.58
2023-01-21T03:52:53.886Z,62.48
2023-01-21T03:55:55.364Z,62.52
2023-01-21T03:58:56.840Z,62.50
2023-01-21T04:01:58.440Z,62.59
2023-01-21T04:04:59.920Z,62.62
2023-01-21T04:08:02.088Z,62.53
2023-01-21T04:11:03.661Z,62.53
2023-01-21T04:14:05.196Z,62.68
2023-01-21T04:17:06.687Z,62.66
2023-01-21T04:20:08.990Z,62.66
2023-01-21T04:23:10.521Z,62.61
2023-01-21T04:26:12.046Z,62.49
2023-01-21T04:29:13.578Z,62.59
2023-01-21T04:32:15.555Z,62.60
2023-01-21T04:35:17.048Z,62.46
2023-01-21T04:38:18.600Z,62.58
2023-01-21T04:41:20.073Z,63.04
2023-01-21T04:44:21.541Z,62.41
2023-01-21T04:47:23.080Z,62.44
2023-01-21T04:50:24.605Z,62.52
2023-01-21T04:53:26.141Z,62.48
2023-01-21T04:56:27.630Z,62.59
2023-01-21T04:59:29.124Z,62.31
2023-01-21T05:02:31.059Z,62.54
2023-01-21T05:05:32.583Z,62.37
2023-01-21T05:08:34.074Z,62.56
2023-01-21T05:11:35.567Z,62.07
2023-01-21T05:14:37.155Z,62.58
2023-01-21T05:17:38.706Z,62.45
2023-01-21T05:20:40.174Z,62.41
2023-01-21T05:23:41.622Z,62.43
2023-01-21T05:26:43.320Z,62.32
2023-01-21T05:29:44.793Z,62.43
2023-01-21T05:32:50.679Z,62.35
2023-01-21T05:35:52.615Z,62.47
2023-01-21T05:38:54.241Z,62.46
2023-01-21T05:41:55.714Z,62.56
2023-01-21T05:44:57.178Z,62.50
2023-01-21T05:47:58.743Z,62.60
2023-01-21T05:51:00.363Z,62.54
2023-01-21T05:54:01.901Z,62.58
2023-01-21T05:57:03.502Z,62.56
2023-01-21T06:00:05.632Z,62.49
2023-01-21T06:03:07.381Z,62.35
2023-01-21T06:06:08.910Z,62.50
2023-01-21T06:09:10.513Z,62.27
2023-01-21T06:12:12.010Z,62.26
2023-01-21T06:15:13.940Z,62.16
2023-01-21T06:18:15.533Z,62.10
2023-01-21T06:21:17.024Z,62.04
2023-01-21T06:24:18.568Z,61.99
2023-01-21T06:27:20.049Z,61.99
2023-01-21T06:30:22.140Z,62.08
2023-01-21T06:33:23.705Z,62.05
2023-01-21T06:36:25.299Z,62.05
2023-01-21T06:39:26.808Z,62.08
2023-01-21T06:42:28.425Z,62.13
2023-01-21T06:45:30.022Z,62.09
2023-01-21T06:48:31.573Z,62.23
2023-01-21T06:51:33.050Z,62.02
2023-01-21T06:54:34.623Z,62.20
2023-01-21T06:57:37.334Z,62.17
2023-01-21T07:00:38.822Z,62.11
2023-01-21T07:03:40.302Z,62.07
2023-01-21T07:06:41.809Z,62.06
2023-01-21T07:09:43.298Z,61.96
2023-01-21T07:12:44.808Z,62.09
2023-01-21T07:15:46.321Z,62.04
2023-01-21T07:18:47.922Z,61.97
2023-01-21T07:21:49.430Z,62.21
2023-01-21T07:24:50.937Z,61.91
2023-01-21T07:27:52.423Z,62.46
2023-01-21T07:30:53.932Z,62.03
2023-01-21T07:33:55.445Z,61.93
2023-01-21T07:36:56.937Z,62.25
2023-01-21T07:39:58.462Z,62.28
2023-01-21T07:43:00.065Z,62.32
2023-01-21T07:46:01.689Z,62.42
2023-01-21T07:49:03.267Z,62.53
2023-01-21T07:52:04.756Z,62.51
2023-01-21T07:55:08.047Z,62.79
2023-01-21T07:58:10.689Z,62.79
2023-01-21T08:01:12.285Z,62.94
2023-01-21T08:04:14.111Z,63.08
2023-01-21T08:07:15.671Z,63.13
2023-01-21T08:10:18.784Z,63.27
2023-01-21T08:13:22.281Z,63.19
2023-01-21T08:16:24.189Z,63.24
2023-01-21T08:19:25.863Z,63.15
2023-01-21T08:22:27.374Z,63.40
2023-01-21T08:25:28.877Z,63.38
2023-01-21T08:28:30.425Z,63.33
2023-01-21T08:31:31.970Z,63.17
2023-01-21T08:34:33.641Z,63.32
2023-01-21T08:37:35.267Z,63.16
2023-01-21T08:40:36.799Z,63.09
2023-01-21T08:43:40.423Z,63.39
2023-01-21T08:46:41.955Z,63.59
2023-01-21T08:49:44.260Z,63.45
2023-01-21T08:52:53.838Z,63.39
2023-01-21T08:56:00.396Z,63.83
2023-01-21T08:59:02.800Z,63.43
2023-01-21T09:02:04.856Z,63.58
2023-01-21T09:05:06.829Z,63.64
2023-01-21T09:08:08.302Z,63.76
2023-01-21T09:11:10.071Z,63.84
2023-01-21T09:14:11.953Z,64.02
2023-01-21T09:17:13.590Z,64.06
2023-01-21T09:20:15.113Z,64.15
2023-01-21T09:23:26.475Z,64.22
2023-01-21T09:26:28.106Z,64.35
2023-01-21T09:29:29.567Z,64.17
2023-01-21T09:32:31.041Z,64.62
2023-01-21T09:35:32.557Z,64.46
2023-01-21T09:38:34.945Z,64.54
2023-01-21T09:41:38.370Z,64.51
2023-01-21T09:44:44.866Z,64.36
2023-01-21T09:47:49.899Z,64.36
2023-01-21T09:50:52.444Z,64.35
2023-01-21T09:53:57.166Z,64.47
2023-01-21T09:57:35.855Z,64.70
2023-01-21T10:00:45.426Z,65.14
2023-01-21T10:03:59.223Z,65.41
2023-01-21T10:07:22.612Z,65.58
2023-01-21T10:10:33.378Z,65.72
2023-01-21T10:13:42.727Z,65.71
2023-01-21T10:17:11.590Z,65.87
2023-01-21T10:20:24.400Z,66.14
2023-01-21T10:23:42.711Z,66.21
2023-01-21T10:26:47.801Z,66.29
2023-01-21T10:29:54.256Z,66.12
2023-01-21T10:32:56.433Z,66.04
2023-01-21T10:36:30.507Z,66.02
2023-01-21T10:39:44.056Z,66.23
2023-01-21T10:42:54.618Z,66.14
2023-01-21T10:46:15.559Z,66.22
2023-01-21T10:49:28.080Z,66.23
2023-01-21T10:52:46.267Z,66.42
2023-01-21T10:55:59.903Z,66.40
2023-01-21T10:59:09.189Z,66.28
2023-01-21T11:02:33.013Z,66.39
2023-01-21T11:05:35.281Z,66.33
2023-01-21T11:08:38.162Z,66.28
2023-01-21T11:11:41.579Z,66.37
2023-01-21T11:14:56.813Z,66.22
2023-01-21T11:17:59.463Z,66.22
2023-01-21T11:21:08.318Z,66.18
2023-01-21T11:24:22.240Z,66.23
2023-01-21T11:27:37.575Z,66.22
2023-01-21T11:30:52.442Z,66.16
2023-01-21T11:33:55.610Z,66.19
2023-01-21T11:37:00.047Z,66.21
2023-01-21T11:40:12.990Z,66.24
2023-01-21T11:43:33.828Z,66.25
2023-01-21T11:46:38.408Z,66.50
2023-01-21T11:49:47.809Z,66.37
2023-01-21T11:53:12.889Z,66.29
2023-01-21T11:56:16.311Z,66.31
2023-01-21T11:59:25.050Z,66.30
2023-01-21T12:02:29.615Z,66.30
2023-01-21T12:05:43.052Z,66.33
2023-01-21T12:08:50.053Z,66.33
2023-01-21T12:12:26.444Z,66.15
2023-01-21T12:15:40.408Z,66.04
2023-01-21T12:18:44.735Z,65.85
2023-01-21T12:22:17.510Z,65.64
2023-01-21T12:25:38.255Z,65.61
2023-01-21T12:29:25.852Z,65.45
2023-01-21T12:32:51.016Z,65.40
2023-01-21T12:35:56.046Z,65.36
2023-01-21T12:39:13.926Z,65.29
2023-01-21T12:42:37.244Z,65.12
2023-01-21T12:45:49.073Z,64.98
2023-01-21T12:49:02.697Z,64.92
2023-01-21T12:52:15.671Z,64.82
2023-01-21T12:55:47.835Z,64.64
2023-01-21T12:58:56.478Z,64.56
2023-01-21T13:02:14.583Z,64.55
2023-01-21T13:05:54.506Z,64.27
2023-01-21T13:08:59.710Z,61.41
2023-01-21T13:12:20.112Z,54.77
2023-01-21T13:15:27.153Z,50.12
2023-01-21T13:18:37.883Z,48.22
2023-01-21T13:21:46.527Z,45.83
2023-01-21T13:25:13.930Z,45.25
2023-01-21T13:28:27.993Z,44.85
2023-01-21T13:31:37.204Z,45.04
2023-01-21T13:35:06.668Z,48.09
2023-01-21T13:38:23.527Z,49.75
2023-01-21T13:41:57.449Z,50.78
2023-01-21T13:45:13.896Z,51.44
2023-01-21T13:48:36.125Z,51.92
2023-01-21T13:51:54.802Z,52.33
2023-01-21T13:55:14.505Z,52.71
2023-01-21T13:58:24.857Z,53.21
2023-01-21T14:01:29.698Z,53.38
2023-01-21T14:04:43.864Z,53.94
2023-01-21T14:07:57.327Z,54.21
2023-01-21T14:11:10.841Z,54.81
2023-01-21T14:14:46.709Z,55.34
2023-01-21T14:17:54.070Z,55.56
2023-01-21T14:21:15.398Z,56.29
2023-01-21T14:24:41.605Z,57.09
2023-01-21T14:28:11.064Z,57.58
2023-01-21T14:31:18.812Z,57.91
2023-01-21T14:34:30.165Z,58.36
2023-01-21T14:37:46.085Z,58.92
2023-01-21T14:41:02.376Z,59.14
2023-01-21T14:44:03.992Z,59.23
2023-01-21T14:47:22.898Z,59.51
2023-01-21T14:50:50.956Z,59.76
2023-01-21T14:53:59.997Z,60.05
2023-01-21T14:57:18.182Z,60.09
2023-01-21T15:00:32.284Z,60.15
2023-01-21T15:03:43.559Z,60.35
2023-01-21T15:06:45.180Z,60.54
2023-01-21T15:09:55.554Z,60.72
2023-01-21T15:12:59.803Z,60.79
2023-01-21T15:16:31.826Z,60.85
2023-01-21T15:19:34.857Z,61.06
2023-01-21T15:22:41.207Z,61.02
2023-01-21T15:26:02.450Z,61.23
2023-01-21T15:29:33.396Z,61.31
2023-01-21T15:32:49.418Z,61.48
2023-01-21T15:35:53.993Z,61.70
2023-01-21T15:39:01.975Z,61.72
2023-01-21T15:42:27.815Z,61.77
2023-01-21T15:45:47.425Z,61.97
2023-01-21T15:49:21.555Z,61.95
2023-01-21T15:52:46.197Z,61.90
2023-01-21T15:56:18.566Z,61.98
2023-01-21T15:59:35.279Z,61.98
2023-01-21T16:02:52.233Z,62.03
2023-01-21T16:06:12.281Z,62.12
2023-01-21T16:09:30.328Z,62.29
2023-01-21T16:12:32.146Z,62.31
2023-01-21T16:15:46.767Z,62.15
2023-01-21T16:19:00.337Z,62.19
2023-01-21T16:22:07.736Z,62.07
2023-01-21T16:25:15.063Z,62.02
2023-01-21T16:28:17.160Z,62.03
2023-01-21T16:31:19.076Z,62.09
2023-01-21T16:34:41.116Z,62.14
2023-01-21T16:37:44.350Z,62.34
2023-01-21T16:40:49.056Z,62.44
2023-01-21T16:43:58.547Z,62.54
2023-01-21T16:47:01.094Z,62.59
2023-01-21T16:50:05.513Z,62.53
2023-01-21T16:53:08.498Z,62.76
2023-01-21T16:56:28.306Z,62.83
2023-01-21T16:59:39.659Z,62.75
2023-01-21T17:02:41.437Z,62.77
2023-01-21T17:05:42.959Z,62.98
2023-01-21T17:08:51.785Z,63.09
2023-01-21T17:11:55.145Z,63.25
2023-01-21T17:15:02.721Z,63.50
2023-01-21T17:18:08.573Z,63.55
2023-01-21T17:21:16.579Z,63.80
2023-01-21T17:24:22.731Z,63.82
2023-01-21T17:27:26.215Z,64.37
2023-01-21T17:30:33.195Z,64.09
2023-01-21T17:33:34.712Z,63.92
2023-01-21T17:36:39.052Z,64.01
2023-01-21T17:39:46.575Z,63.99
2023-01-21T17:42:48.164Z,63.95
2023-01-21T17:45:52.767Z,63.90
2023-01-21T17:49:06.128Z,63.95
2023-01-21T17:52:20.035Z,64.17
2023-01-21T17:55:24.677Z,64.04
2023-01-21T17:58:31.941Z,63.97
2023-01-21T18:01:33.460Z,63.93
2023-01-21T18:04:35.296Z,63.93
2023-01-21T18:07:37.811Z,63.84
2023-01-21T18:10:39.515Z,63.84
2023-01-21T18:13:41.030Z,63.86
2023-01-21T18:16:42.670Z,63.87
2023-01-21T18:19:44.200Z,63.80
2023-01-21T18:22:46.485Z,63.87
2023-01-21T18:25:52.389Z,63.90
2023-01-21T18:28:54.137Z,63.84
2023-01-21T18:31:56.150Z,63.96
2023-01-21T18:34:59.715Z,64.06
2023-01-21T18:38:01.320Z,64.03
2023-01-21T18:41:02.815Z,64.02
2023-01-21T18:44:04.538Z,64.10
2023-01-21T18:47:14.012Z,64.07
2023-01-21T18:50:18.695Z,63.90
2023-01-21T18:53:20.161Z,64.01
2023-01-21T18:56:21.746Z,64.10
2023-01-21T18:59:23.365Z,63.71
2023-01-21T19:02:24.892Z,64.01
2023-01-21T19:05:36.449Z,64.06
2023-01-21T19:08:37.952Z,63.98
2023-01-21T19:11:39.393Z,63.86
2023-01-21T19:14:40.873Z,63.80
2023-01-21T19:17:42.835Z,63.91
2023-01-21T19:20:44.472Z,63.85
2023-01-21T19:23:45.945Z,63.80
2023-01-21T19:26:47.513Z,63.96
2023-01-21T19:29:48.984Z,63.78
2023-01-21T19:32:52.292Z,63.87
2023-01-21T19:36:10.998Z,63.86
2023-01-21T19:39:25.321Z,63.74
2023-01-21T19:42:26.779Z,63.65
2023-01-21T19:45:29.084Z,63.35
2023-01-21T19:48:30.667Z,63.14
2023-01-21T19:51:32.827Z,62.81
2023-01-21T19:54:34.360Z,62.72
2023-01-21T19:57:36.705Z,62.67
2023-01-21T20:00:38.201Z,62.76
2023-01-21T20:03:48.062Z,62.78
2023-01-21T20:06:56.368Z,62.77
2023-01-21T20:09:57.877Z,62.89
2023-01-21T20:12:59.348Z,63.01
2023-01-21T20:16:10.974Z,63.34
2023-01-21T20:19:17.742Z,63.47
2023-01-21T20:22:19.490Z,63.69
2023-01-21T20:25:28.190Z,63.74
2023-01-21T20:28:46.804Z,63.84
2023-01-21T20:31:48.334Z,63.71
2023-01-21T20:34:49.789Z,64.32
2023-01-21T20:37:53.636Z,64.52
2023-01-21T20:40:55.126Z,64.58
2023-01-21T20:43:57.256Z,65.17
2023-01-21T20:47:00.889Z,65.19
2023-01-21T20:50:02.407Z,65.16
2023-01-21T20:53:04.602Z,65.59
2023-01-21T20:56:19.417Z,64.98
2023-01-21T20:59:21.723Z,65.36
2023-01-21T21:02:23.210Z,65.32
2023-01-21T21:05:27.571Z,65.27
2023-01-21T21:08:29.252Z,65.30
2023-01-21T21:11:30.727Z,65.84
2023-01-21T21:14:32.244Z,65.40
2023-01-21T21:17:33.715Z,65.58
2023-01-21T21:20:38.751Z,65.54
2023-01-21T21:23:40.270Z,65.53
2023-01-21T21:26:43.547Z,65.29
2023-01-21T21:29:45.297Z,65.48
2023-01-21T21:32:46.760Z,65.33
2023-01-21T21:35:49.667Z,65.47
2023-01-21T21:38:52.488Z,65.30
2023-01-21T21:42:15.034Z,65.25
2023-01-21T21:45:18.089Z,65.43
2023-01-21T21:48:39.413Z,65.11
2023-01-21T21:51:41.047Z,65.22
2023-01-21T21:54:42.808Z,64.92
2023-01-21T21:57:44.357Z,65.00
2023-01-21T22:00:46.018Z,65.24
2023-01-21T22:03:48.189Z,65.10
2023-01-21T22:06:49.775Z,64.91
2023-01-21T22:09:51.263Z,64.98
2023-01-21T22:12:53.140Z,64.86
2023-01-21T22:15:59.173Z,64.79
2023-01-21T22:19:01.516Z,64.58
2023-01-21T22:22:03.048Z,64.43
2023-01-21T22:25:05.502Z,64.41
2023-01-21T22:28:06.977Z,64.21
2023-01-21T22:31:20.465Z,64.24
2023-01-21T22:34:22.092Z,64.21
2023-01-21T22:37:23.674Z,64.44
2023-01-21T22:40:25.390Z,64.27
2023-01-21T22:43:27.175Z,64.50
2023-01-21T22:46:33.711Z,64.52
2023-01-21T22:49:35.101Z,64.28
2023-01-21T22:52:36.606Z,64.35
2023-01-21T22:55:38.289Z,64.36
2023-01-21T22:58:39.835Z,64.57
2023-01-21T23:01:41.766Z,64.59
2023-01-21T23:04:43.498Z,64.51
2023-01-21T23:07:44.977Z,64.67
2023-01-21T23:10:47.149Z,64.33
2023-01-21T23:13:49.586Z,64.29
2023-01-21T23:16:52.690Z,64.20
2023-01-21T23:19:54.176Z,64.14
2023-01-21T23:22:59.069Z,64.22
2023-01-21T23:26:02.062Z,64.23
2023-01-21T23:29:03.792Z,64.11
2023-01-21T23:32:05.663Z,63.97
2023-01-21T23:35:08.654Z,63.89
2023-01-21T23:38:10.211Z,64.00
2023-01-21T23:41:16.681Z,64.24
2023-01-21T23:44:18.080Z,63.83
2023-01-21T23:47:19.613Z,63.76
2023-01-21T23:50:21.429Z,63.78
2023-01-21T23:53:22.946Z,63.61
2023-01-21T23:56:25.832Z,63.58
2023-01-21T23:59:27.323Z,63.97
